Terminal Aerodrome Forecast
Issued by NWS

Home | Current Version | Previous Version | Text Only | Print | Product List | Glossary On
Versions: 1 2 3 4 5 6 7 8 9 10 11 12 13 14 15 16 17 18 19
000
FTAK31 PAFA 172338
TAFAOT
TAF
PAOT 172338Z 1800/1824 09012KT 3SM -FZDZSN BR BKN007 OVC015
     FM180600 12008KT 6SM -FZDZSN BR BKN015 OVC025
     FM182100 12018G28KT 6SM -SN BLSN BR SCT003 BKN015 OVC025=

USA.gov is the U.S. government's official web portal to all federal, state and local government web resources and services.